createdAt,value
2023-01-04T00:00:45.220Z,101763.56
2023-01-04T00:02:47.295Z,101777.44
2023-01-04T00:04:49.284Z,101768.31
2023-01-04T00:06:51.178Z,101769.31
2023-01-04T00:08:54.228Z,101775.56
2023-01-04T00:11:04.503Z,101762.53
2023-01-04T00:13:06.363Z,101770.25
2023-01-04T00:15:08.812Z,101767.00
2023-01-04T00:17:10.660Z,101770.41
2023-01-04T00:19:13.291Z,101761.88
2023-01-04T00:21:21.903Z,101758.84
2023-01-04T00:23:23.806Z,101751.13
2023-01-04T00:25:26.037Z,101748.75
2023-01-04T00:27:28.077Z,101756.00
2023-01-04T00:29:29.968Z,101763.66
2023-01-04T00:31:32.175Z,101768.59
2023-01-04T00:33:34.337Z,101768.50
2023-01-04T00:35:45.807Z,101767.50
2023-01-04T00:37:51.858Z,101775.31
2023-01-04T00:39:54.116Z,101766.00
2023-01-04T00:42:05.420Z,101777.16
2023-01-04T00:44:10.542Z,101772.84
2023-01-04T00:46:12.729Z,101775.53
2023-01-04T00:48:14.679Z,101775.44
2023-01-04T00:50:16.716Z,101775.66
2023-01-04T00:52:18.683Z,101782.78
2023-01-04T00:54:21.683Z,101784.53
2023-01-04T00:56:23.761Z,101787.84
2023-01-04T00:58:25.618Z,101798.72
2023-01-04T01:00:27.536Z,101796.69
2023-01-04T01:02:29.850Z,101799.13
2023-01-04T01:04:31.957Z,101807.09
2023-01-04T01:06:35.284Z,101805.56
2023-01-04T01:08:37.632Z,101809.59
2023-01-04T01:10:39.540Z,101807.22
2023-01-04T01:12:42.527Z,101804.06
2023-01-04T01:14:45.511Z,101808.63
2023-01-04T01:16:57.707Z,101796.44
2023-01-04T01:19:00.893Z,101803.03
2023-01-04T01:21:14.082Z,101800.38
2023-01-04T01:23:15.969Z,101801.78
2023-01-04T01:25:17.953Z,101810.38
2023-01-04T01:27:19.792Z,101806.19
2023-01-04T01:29:21.812Z,101802.78
2023-01-04T01:31:27.563Z,101805.69
2023-01-04T01:33:30.517Z,101813.00
2023-01-04T01:35:33.718Z,101807.84
2023-01-04T01:37:35.561Z,101798.06
2023-01-04T01:39:37.420Z,101804.00
2023-01-04T01:41:39.628Z,101797.44
2023-01-04T01:43:56.768Z,101795.25
2023-01-04T01:45:58.771Z,101798.44
2023-01-04T01:48:07.403Z,101782.50
2023-01-04T01:50:39.963Z,101793.50
2023-01-04T01:52:41.868Z,101771.75
2023-01-04T01:54:47.878Z,101775.13
2023-01-04T01:56:51.999Z,101777.16
2023-01-04T01:58:56.068Z,101781.06
2023-01-04T02:00:58.561Z,101786.00
2023-01-04T02:03:18.988Z,101782.59
2023-01-04T02:05:21.660Z,101786.47
2023-01-04T02:07:28.871Z,101782.19
2023-01-04T02:09:32.607Z,101789.25
2023-01-04T02:11:34.530Z,101778.78
2023-01-04T02:13:57.873Z,101784.47
2023-01-04T02:16:23.219Z,101774.59
2023-01-04T02:18:30.848Z,101777.91
2023-01-04T02:20:47.763Z,101770.91
2023-01-04T02:23:38.797Z,101770.56
2023-01-04T02:25:58.546Z,101766.34
2023-01-04T02:28:18.952Z,101772.31
2023-01-04T02:30:33.248Z,101774.22
2023-01-04T02:33:03.075Z,101765.25
2023-01-04T02:35:14.207Z,101770.44
2023-01-04T02:37:31.323Z,101766.00
2023-01-04T02:39:43.813Z,101758.91
2023-01-04T02:41:56.616Z,101752.22
2023-01-04T02:44:28.965Z,101749.94
2023-01-04T02:46:35.611Z,101740.38
2023-01-04T02:48:58.672Z,101738.56
2023-01-04T02:51:01.242Z,101746.53
2023-01-04T02:53:11.331Z,101745.28
2023-01-04T02:55:13.213Z,101746.56
2023-01-04T02:57:42.724Z,101752.88
2023-01-04T03:00:03.740Z,101749.84
2023-01-04T03:02:30.271Z,101745.28
2023-01-04T03:05:06.939Z,101750.84
2023-01-04T03:07:32.092Z,101740.22
2023-01-04T03:09:41.380Z,101745.00
2023-01-04T03:12:27.986Z,101731.47
2023-01-04T03:14:38.952Z,101728.53
2023-01-04T03:16:44.229Z,101734.31
2023-01-04T03:18:51.260Z,101720.81
2023-01-04T03:20:55.780Z,101723.81
2023-01-04T03:23:27.474Z,101718.13
2023-01-04T03:25:58.398Z,101706.03
2023-01-04T03:28:19.756Z,101706.13
2023-01-04T03:30:46.219Z,101712.06
2023-01-04T03:33:15.035Z,101705.56
2023-01-04T03:35:28.360Z,101706.19
2023-01-04T03:38:13.050Z,101715.41
2023-01-04T03:40:45.887Z,101710.38
2023-01-04T03:43:26.749Z,101705.16
2023-01-04T03:45:52.657Z,101697.19
2023-01-04T03:48:21.902Z,101706.41
2023-01-04T03:50:31.954Z,101703.34
2023-01-04T03:52:35.974Z,101684.34
2023-01-04T03:54:41.645Z,101692.19
2023-01-04T03:56:45.316Z,101692.91
2023-01-04T03:58:47.223Z,101689.66
2023-01-04T04:00:49.280Z,101694.44
2023-01-04T04:02:51.240Z,101692.66
2023-01-04T04:05:11.650Z,101694.38
2023-01-04T04:07:32.323Z,101689.09
2023-01-04T04:09:34.296Z,101686.81
2023-01-04T04:11:36.104Z,101692.69
2023-01-04T04:13:37.968Z,101689.53
2023-01-04T04:15:40.273Z,101689.41
2023-01-04T04:17:42.130Z,101689.19
2023-01-04T04:19:44.040Z,101697.88
2023-01-04T04:21:45.923Z,101689.91
2023-01-04T04:23:48.209Z,101684.50
2023-01-04T04:25:50.049Z,101684.09
2023-01-04T04:27:53.014Z,101676.59
2023-01-04T04:29:54.992Z,101673.66
2023-01-04T04:31:56.917Z,101681.44
2023-01-04T04:33:58.928Z,101678.25
2023-01-04T04:36:00.823Z,101673.75
2023-01-04T04:38:02.651Z,101678.81
2023-01-04T04:40:07.170Z,101676.91
2023-01-04T04:42:10.061Z,101678.66
2023-01-04T04:44:15.249Z,101674.28
2023-01-04T04:46:17.287Z,101668.59
2023-01-04T04:48:19.200Z,101672.97
2023-01-04T04:50:21.146Z,101673.41
2023-01-04T04:52:23.619Z,101669.50
2023-01-04T04:54:25.569Z,101671.59
2023-01-04T04:56:28.698Z,101675.00
2023-01-04T04:58:31.750Z,101668.75
2023-01-04T05:00:33.897Z,101671.38
2023-01-04T05:02:35.829Z,101673.97
2023-01-04T05:04:37.803Z,101677.00
2023-01-04T05:06:40.680Z,101678.81
2023-01-04T05:08:42.639Z,101676.19
2023-01-04T05:10:45.600Z,101672.94
2023-01-04T05:13:02.658Z,101675.50
2023-01-04T05:15:04.968Z,101671.56
2023-01-04T05:17:06.999Z,101667.09
2023-01-04T05:19:08.940Z,101663.31
2023-01-04T05:21:12.794Z,101657.59
2023-01-04T05:23:18.331Z,101659.28
2023-01-04T05:25:20.307Z,101650.09
2023-01-04T05:27:25.155Z,101644.41
2023-01-04T05:29:45.836Z,101647.75
2023-01-04T05:31:48.105Z,101646.03
2023-01-04T05:33:50.039Z,101644.69
2023-01-04T05:35:52.919Z,101643.19
2023-01-04T05:37:54.855Z,101635.78
2023-01-04T05:39:56.824Z,101636.16
2023-01-04T05:42:17.135Z,101645.50
2023-01-04T05:44:18.983Z,101633.09
2023-01-04T05:46:20.848Z,101634.66
2023-01-04T05:48:24.854Z,101635.56
2023-01-04T05:50:26.716Z,101642.09
2023-01-04T05:52:28.905Z,101630.50
2023-01-04T05:54:30.840Z,101627.47
2023-01-04T05:56:33.502Z,101626.59
2023-01-04T05:58:35.378Z,101621.09
2023-01-04T06:00:37.294Z,101609.78
2023-01-04T06:02:39.449Z,101617.25
2023-01-04T06:04:41.447Z,101612.41
2023-01-04T06:06:43.470Z,101620.16
2023-01-04T06:08:45.348Z,101613.59
2023-01-04T06:10:53.593Z,101610.34
2023-01-04T06:12:55.590Z,101614.97
2023-01-04T06:14:57.442Z,101600.53
2023-01-04T06:17:00.004Z,101600.53
2023-01-04T06:19:02.757Z,101594.94
2023-01-04T06:21:04.683Z,101590.38
2023-01-04T06:23:06.554Z,101589.31
2023-01-04T06:25:09.815Z,101578.72
2023-01-04T06:27:11.800Z,101584.72
2023-01-04T06:29:14.256Z,101572.53
2023-01-04T06:31:16.182Z,101565.44
2023-01-04T06:33:18.276Z,101567.84
2023-01-04T06:35:20.195Z,101576.69
2023-01-04T06:37:24.313Z,101571.66
2023-01-04T06:39:26.294Z,101570.72
2023-01-04T06:41:28.315Z,101570.94
2023-01-04T06:43:30.402Z,101565.78
2023-01-04T06:45:32.369Z,101563.38
2023-01-04T06:47:35.401Z,101564.56
2023-01-04T06:49:39.357Z,101568.94
2023-01-04T06:51:42.312Z,101568.00
2023-01-04T06:53:44.334Z,101566.88
2023-01-04T06:55:46.306Z,101568.56
2023-01-04T06:57:48.219Z,101571.66
2023-01-04T06:59:50.276Z,101571.97
2023-01-04T07:01:52.345Z,101570.75
2023-01-04T07:03:54.419Z,101579.72
2023-01-04T07:05:56.433Z,101578.16
2023-01-04T07:08:07.993Z,101583.28
2023-01-04T07:10:10.525Z,101595.88
2023-01-04T07:12:13.484Z,101598.03
2023-01-04T07:14:15.448Z,101590.16
2023-01-04T07:16:17.516Z,101590.16
2023-01-04T07:18:20.473Z,101599.53
2023-01-04T07:20:22.410Z,101592.34
2023-01-04T07:22:24.330Z,101588.19
2023-01-04T07:24:30.291Z,101583.66
2023-01-04T07:26:33.482Z,101573.47
2023-01-04T07:28:53.994Z,101580.31
2023-01-04T07:30:55.942Z,101572.53
2023-01-04T07:32:58.376Z,101569.88
2023-01-04T07:35:01.394Z,101568.56
2023-01-04T07:37:03.819Z,101570.38
2023-01-04T07:39:05.918Z,101566.00
2023-01-04T07:41:07.976Z,101556.78
2023-01-04T07:43:09.912Z,101554.13
2023-01-04T07:45:12.097Z,101551.34
2023-01-04T07:47:14.054Z,101551.59
2023-01-04T07:49:18.704Z,101551.31
2023-01-04T07:51:20.769Z,101543.22
2023-01-04T07:53:22.752Z,101543.72
2023-01-04T07:55:24.691Z,101542.44
2023-01-04T07:57:26.629Z,101537.91
2023-01-04T07:59:28.704Z,101536.63
2023-01-04T08:01:30.759Z,101524.44
2023-01-04T08:03:32.853Z,101530.09
2023-01-04T08:05:35.234Z,101525.91
2023-01-04T08:07:37.089Z,101518.28
2023-01-04T08:09:39.031Z,101515.13
2023-01-04T08:11:41.438Z,101509.59
2023-01-04T08:13:44.060Z,101512.22
2023-01-04T08:15:53.166Z,101506.25
2023-01-04T08:17:56.558Z,101495.72
2023-01-04T08:19:58.787Z,101506.28
2023-01-04T08:22:00.703Z,101505.66
2023-01-04T08:24:04.184Z,101507.13
2023-01-04T08:26:11.187Z,101511.31
2023-01-04T08:28:13.122Z,101505.38
2023-01-04T08:30:15.117Z,101493.97
2023-01-04T08:32:17.100Z,101490.00
2023-01-04T08:34:20.013Z,101479.31
2023-01-04T08:36:27.991Z,101477.31
2023-01-04T08:38:58.900Z,101477.50
2023-01-04T08:40:58.871Z,101481.81
2023-01-04T08:43:05.770Z,101493.06
2023-01-04T08:45:08.943Z,101483.84
2023-01-04T08:47:10.932Z,101477.59
2023-01-04T08:49:12.934Z,101475.28
2023-01-04T08:51:16.721Z,101479.81
2023-01-04T08:53:18.640Z,101465.34
2023-01-04T08:55:23.439Z,101470.16
2023-01-04T08:57:25.844Z,101468.03
2023-01-04T08:59:27.837Z,101475.38
2023-01-04T09:01:30.280Z,101459.03
2023-01-04T09:03:32.811Z,101463.03
2023-01-04T09:05:34.751Z,101455.41
2023-01-04T09:07:36.695Z,101454.34
2023-01-04T09:09:38.645Z,101449.19
2023-01-04T09:11:40.616Z,101435.91
2023-01-04T09:13:43.507Z,101427.44
2023-01-04T09:15:45.504Z,101422.56
2023-01-04T09:18:20.509Z,101424.69
2023-01-04T09:20:12.543Z,101420.13
2023-01-04T09:22:14.666Z,101423.72
2023-01-04T09:24:16.787Z,101406.59
2023-01-04T09:26:22.533Z,101408.88
2023-01-04T09:28:24.487Z,101399.88
2023-01-04T09:30:26.486Z,101396.56
2023-01-04T09:32:30.022Z,101387.97
2023-01-04T09:34:31.948Z,101381.94
2023-01-04T09:36:33.932Z,101383.53
2023-01-04T09:38:36.285Z,101383.38
2023-01-04T09:41:13.524Z,101372.47
2023-01-04T09:43:21.909Z,101375.13
2023-01-04T09:45:27.972Z,101361.75
2023-01-04T09:48:07.708Z,101351.66
2023-01-04T09:50:24.997Z,101355.69
2023-01-04T09:52:55.461Z,101343.97
2023-01-04T09:55:05.091Z,101337.25
2023-01-04T09:57:51.548Z,101343.97
2023-01-04T10:00:01.406Z,101331.94
2023-01-04T10:02:18.201Z,101332.19
2023-01-04T10:04:36.586Z,101327.63
2023-01-04T10:06:39.103Z,101313.25
2023-01-04T10:08:43.431Z,101309.00
2023-01-04T10:10:56.672Z,101294.56
2023-01-04T10:13:26.783Z,101293.63
2023-01-04T10:15:37.299Z,101282.44
2023-01-04T10:21:31.461Z,101279.75
2023-01-04T10:23:51.909Z,101282.94
2023-01-04T10:25:58.082Z,101267.13
2023-01-04T10:28:10.758Z,101270.00
2023-01-04T10:30:44.361Z,101251.81
2023-01-04T10:32:50.614Z,101242.84
2023-01-04T10:34:53.860Z,101224.34
2023-01-04T10:37:04.329Z,101199.69
2023-01-04T10:39:18.758Z,101196.59
2023-01-04T10:41:26.981Z,101182.50
2023-01-04T10:44:14.402Z,101181.44
2023-01-04T10:46:25.131Z,101166.44
2023-01-04T10:48:51.651Z,101169.97
2023-01-04T10:51:09.692Z,101155.59
2023-01-04T10:53:23.801Z,101140.28
2023-01-04T10:55:31.632Z,101134.38
2023-01-04T10:57:55.129Z,101126.63
2023-01-04T11:00:07.560Z,101124.16
2023-01-04T11:02:30.513Z,101117.47
2023-01-04T11:04:49.982Z,101115.56
2023-01-04T11:07:11.186Z,101110.44
2023-01-04T11:09:25.567Z,101112.03
2023-01-04T11:11:36.273Z,101109.66
2023-01-04T11:13:39.339Z,101113.81
2023-01-04T11:15:42.990Z,101111.63
2023-01-04T11:17:45.973Z,101092.81
2023-01-04T11:19:48.237Z,101086.03
2023-01-04T11:21:58.611Z,101081.16
2023-01-04T11:24:30.161Z,101076.03
2023-01-04T11:26:39.609Z,101069.56
2023-01-04T11:28:57.832Z,101066.06
2023-01-04T11:31:09.723Z,101058.41
2023-01-04T11:33:16.438Z,101045.63
2023-01-04T11:35:52.579Z,101043.94
2023-01-04T11:38:11.036Z,101032.00
2023-01-04T11:40:19.130Z,101026.03
2023-01-04T11:42:22.591Z,101012.06
2023-01-04T11:44:26.167Z,101003.31
2023-01-04T11:46:29.850Z,101004.84
2023-01-04T11:48:43.498Z,101002.94
2023-01-04T11:50:51.433Z,100994.34
2023-01-04T11:52:53.408Z,100983.97
2023-01-04T11:54:55.490Z,100972.03
2023-01-04T11:56:59.300Z,100959.91
2023-01-04T11:59:24.815Z,100968.38
2023-01-04T12:01:27.131Z,100951.16
2023-01-04T12:03:38.698Z,100943.13
2023-01-04T12:05:40.909Z,100930.28
2023-01-04T12:07:43.363Z,100937.00
2023-01-04T12:09:46.362Z,100932.69
2023-01-04T12:11:51.929Z,100932.53
2023-01-04T12:13:53.919Z,100922.09
2023-01-04T12:16:08.884Z,100932.38
2023-01-04T12:18:22.914Z,100922.91
2023-01-04T12:20:28.965Z,100924.72
2023-01-04T12:22:41.230Z,100915.34
2023-01-04T12:24:45.969Z,100905.06
2023-01-04T12:26:49.525Z,100899.09
2023-01-04T12:29:23.280Z,100893.81
2023-01-04T12:31:25.897Z,100880.13
2023-01-04T12:33:30.600Z,100873.19
2023-01-04T12:36:02.654Z,100875.38
2023-01-04T12:38:05.032Z,100878.66
2023-01-04T12:40:46.732Z,100879.47
2023-01-04T12:43:15.911Z,100866.63
2023-01-04T12:45:20.840Z,100868.00
2023-01-04T12:47:47.472Z,100854.38
2023-01-04T12:50:11.479Z,100853.72
2023-01-04T12:52:34.337Z,100839.84
2023-01-04T12:55:03.988Z,100834.75
2023-01-04T12:57:22.880Z,100832.16
2023-01-04T13:00:06.626Z,100824.56
2023-01-04T13:02:15.804Z,100818.53
2023-01-04T13:04:41.276Z,100807.22
2023-01-04T13:06:46.133Z,100798.94
2023-01-04T13:08:52.007Z,100797.03
2023-01-04T13:10:57.400Z,100792.09
2023-01-04T13:13:42.315Z,100786.91
2023-01-04T13:16:12.146Z,100785.22
2023-01-04T13:18:35.972Z,100771.97
2023-01-04T13:20:39.544Z,100765.13
2023-01-04T13:22:51.383Z,100755.91
2023-01-04T13:24:54.117Z,100757.63
2023-01-04T13:26:57.019Z,100743.28
2023-01-04T13:29:18.567Z,100745.84
2023-01-04T13:31:20.798Z,100728.28
2023-01-04T13:33:27.292Z,100725.00
2023-01-04T13:35:30.150Z,100719.25
2023-01-04T13:37:36.335Z,100714.19
2023-01-04T13:39:49.685Z,100704.06
2023-01-04T13:41:53.094Z,100689.19
2023-01-04T13:44:15.569Z,100695.16
2023-01-04T13:46:24.232Z,100690.19
2023-01-04T13:48:30.545Z,100682.16
2023-01-04T13:50:44.372Z,100687.31
2023-01-04T13:53:00.062Z,100683.13
2023-01-04T13:55:21.068Z,100691.44
2023-01-04T13:57:25.175Z,100673.69
2023-01-04T13:59:27.418Z,100667.84
2023-01-04T14:01:45.698Z,100665.19
2023-01-04T14:03:52.176Z,100658.78
2023-01-04T14:06:01.291Z,100653.63
2023-01-04T14:08:17.475Z,100649.66
2023-01-04T14:10:19.822Z,100647.84
2023-01-04T14:12:27.654Z,100645.38
2023-01-04T14:14:45.604Z,100640.41
2023-01-04T14:16:48.367Z,100637.75
2023-01-04T14:18:50.430Z,100633.75
2023-01-04T14:20:52.512Z,100618.25
2023-01-04T14:22:59.074Z,100604.56
2023-01-04T14:25:20.341Z,100596.94
2023-01-04T14:27:37.476Z,100590.19
2023-01-04T14:29:40.631Z,100589.13
2023-01-04T14:31:44.137Z,100589.44
2023-01-04T14:33:49.465Z,100588.69
2023-01-04T14:36:10.936Z,100577.66
2023-01-04T14:38:19.276Z,100575.81
2023-01-04T14:40:33.879Z,100572.72
2023-01-04T14:42:35.883Z,100561.41
2023-01-04T14:44:41.360Z,100531.34
2023-01-04T14:46:47.340Z,100518.06
2023-01-04T14:48:50.082Z,100508.81
2023-01-04T14:50:54.066Z,100507.47
2023-01-04T14:52:56.141Z,100515.31
2023-01-04T14:54:59.495Z,100499.34
2023-01-04T14:57:01.568Z,100498.09
2023-01-04T14:59:04.019Z,100479.50
2023-01-04T15:01:06.264Z,100476.09
2023-01-04T15:03:09.955Z,100463.44
2023-01-04T15:05:13.158Z,100462.63
2023-01-04T15:07:47.542Z,100454.06
2023-01-04T15:09:50.506Z,100449.88
2023-01-04T15:11:53.594Z,100443.47
2023-01-04T15:13:55.763Z,100440.41
2023-01-04T15:15:58.448Z,100436.81
2023-01-04T15:18:00.671Z,100431.63
2023-01-04T15:20:04.906Z,100424.72
2023-01-04T15:22:07.867Z,100414.03
2023-01-04T15:24:10.864Z,100409.94
2023-01-04T15:26:13.180Z,100411.59
2023-01-04T15:28:16.842Z,100403.28
2023-01-04T15:30:19.335Z,100409.31
2023-01-04T15:32:21.305Z,100405.91
2023-01-04T15:34:23.313Z,100399.38
2023-01-04T15:36:25.649Z,100400.97
2023-01-04T15:38:27.895Z,100394.38
2023-01-04T15:40:29.862Z,100387.47
2023-01-04T15:42:50.408Z,100377.34
2023-01-04T15:44:52.330Z,100379.88
2023-01-04T15:46:54.955Z,100373.59
2023-01-04T15:48:57.005Z,100369.72
2023-01-04T15:51:07.978Z,100371.41
2023-01-04T15:53:10.520Z,100368.84
2023-01-04T15:55:14.679Z,100358.59
2023-01-04T15:57:16.867Z,100352.63
2023-01-04T15:59:19.206Z,100340.63
2023-01-04T16:01:23.551Z,100344.66
2023-01-04T16:03:25.587Z,100331.16
2023-01-04T16:05:27.655Z,100324.31
2023-01-04T16:07:34.373Z,100332.88
2023-01-04T16:09:38.491Z,100322.31
2023-01-04T16:12:00.411Z,100316.25
2023-01-04T16:14:02.741Z,100315.03
2023-01-04T16:16:05.752Z,100308.81
2023-01-04T16:18:07.727Z,100309.94
2023-01-04T16:20:11.314Z,100303.84
2023-01-04T16:22:13.424Z,100291.38
2023-01-04T16:24:44.911Z,100290.28
2023-01-04T16:26:38.040Z,100282.88
2023-01-04T16:28:40.710Z,100277.97
2023-01-04T16:30:44.832Z,100271.47
2023-01-04T16:32:46.865Z,100268.66
2023-01-04T16:34:51.120Z,100266.00
2023-01-04T16:36:53.215Z,100263.84
2023-01-04T16:38:55.326Z,100259.59
2023-01-04T16:41:02.357Z,100245.50
2023-01-04T16:43:04.391Z,100248.00
2023-01-04T16:45:07.417Z,100240.41
2023-01-04T16:47:10.473Z,100234.16
2023-01-04T16:49:20.936Z,100231.06
2023-01-04T16:51:26.303Z,100217.88
2023-01-04T16:53:28.253Z,100220.16
2023-01-04T16:55:31.279Z,100197.94
2023-01-04T16:57:33.329Z,100207.59
2023-01-04T16:59:36.361Z,100205.94
2023-01-04T17:01:47.917Z,100218.78
2023-01-04T17:03:56.958Z,100221.25
2023-01-04T17:05:59.064Z,100210.31
2023-01-04T17:08:02.112Z,100206.13
2023-01-04T17:10:06.055Z,100206.72
2023-01-04T17:14:31.174Z,100184.38
2023-01-04T17:16:35.176Z,100187.94
2023-01-04T17:18:38.029Z,100183.78
2023-01-04T17:20:41.140Z,100180.94
2023-01-04T17:22:43.185Z,100165.56
2023-01-04T17:24:45.612Z,100163.19
2023-01-04T17:26:50.132Z,100164.78
2023-01-04T17:28:53.352Z,100143.56
2023-01-04T17:30:58.904Z,100141.25
2023-01-04T17:33:01.085Z,100135.00
2023-01-04T17:35:03.636Z,100148.84
2023-01-04T17:37:05.825Z,100136.50
2023-01-04T17:39:08.830Z,100124.97
2023-01-04T17:41:21.940Z,100127.66
2023-01-04T17:43:23.939Z,100120.63
2023-01-04T17:45:27.136Z,100112.34
2023-01-04T17:47:30.260Z,100111.69
2023-01-04T17:49:32.762Z,100106.53
2023-01-04T17:51:38.865Z,100100.56
2023-01-04T17:53:46.978Z,100090.19
2023-01-04T17:55:49.312Z,100084.25
2023-01-04T17:57:54.850Z,100084.34
2023-01-04T17:59:57.279Z,100077.50
2023-01-04T18:01:59.852Z,100072.09
2023-01-04T18:04:04.940Z,100062.22
2023-01-04T18:06:24.734Z,100053.53
2023-01-04T18:08:27.675Z,100039.63
2023-01-04T18:10:41.318Z,100035.34
2023-01-04T18:12:55.091Z,100036.06
2023-01-04T18:15:00.979Z,100040.53
2023-01-04T18:17:06.761Z,100020.75
2023-01-04T18:19:09.308Z,100020.75
2023-01-04T18:21:29.439Z,100029.25
2023-01-04T18:23:35.176Z,100013.88
2023-01-04T18:25:38.233Z,100006.22
2023-01-04T18:27:43.635Z,100019.03
2023-01-04T18:29:49.592Z,100014.69
2023-01-04T18:31:52.767Z,100005.78
2023-01-04T18:33:57.582Z,99999.72
2023-01-04T18:36:08.357Z,99997.91
2023-01-04T18:38:17.067Z,99982.56
2023-01-04T18:40:25.621Z,99981.88
2023-01-04T18:42:30.146Z,99970.84
2023-01-04T18:44:34.985Z,99955.75
2023-01-04T18:46:38.157Z,99972.78
2023-01-04T18:48:41.471Z,99962.56
2023-01-04T18:50:44.070Z,99955.84
2023-01-04T18:52:47.802Z,99950.19
2023-01-04T18:54:51.714Z,99950.06
2023-01-04T18:57:01.883Z,99954.22
2023-01-04T18:59:04.798Z,99940.53
2023-01-04T19:01:13.201Z,99944.31
2023-01-04T19:03:18.705Z,99932.56
2023-01-04T19:05:28.467Z,99931.19
2023-01-04T19:07:36.878Z,99923.44
2023-01-04T19:09:45.199Z,99911.53
2023-01-04T19:11:48.471Z,99916.00
2023-01-04T19:13:54.436Z,99910.91
2023-01-04T19:15:57.769Z,99912.75
2023-01-04T19:18:00.264Z,99928.16
2023-01-04T19:20:05.366Z,99919.47
2023-01-04T19:22:10.092Z,99902.16
2023-01-04T19:24:17.042Z,99891.97
2023-01-04T19:26:20.273Z,99877.50
2023-01-04T19:28:25.327Z,99889.56
2023-01-04T19:30:32.310Z,99885.53
2023-01-04T19:32:42.799Z,99866.81
2023-01-04T19:34:47.629Z,99885.91
2023-01-04T19:36:52.653Z,99883.81
2023-01-04T19:39:08.709Z,99877.81
2023-01-04T19:41:26.382Z,99878.94
2023-01-04T19:43:39.637Z,99874.59
2023-01-04T19:45:43.128Z,99863.53
2023-01-04T19:47:46.967Z,99868.16
2023-01-04T19:50:03.741Z,99865.63
2023-01-04T19:52:06.579Z,99863.97
2023-01-04T19:54:09.160Z,99857.44
2023-01-04T19:56:15.407Z,99847.03
2023-01-04T19:58:18.249Z,99844.47
2023-01-04T20:00:20.881Z,99841.22
2023-01-04T20:02:25.177Z,99843.63
2023-01-04T20:04:28.459Z,99832.56
2023-01-04T20:06:33.462Z,99836.03
2023-01-04T20:08:37.660Z,99830.38
2023-01-04T20:10:40.259Z,99839.56
2023-01-04T20:12:46.009Z,99826.03
2023-01-04T20:14:51.582Z,99814.31
2023-01-04T20:16:54.877Z,99815.78
2023-01-04T20:18:58.364Z,99828.59
2023-01-04T20:21:02.939Z,99816.59
2023-01-04T20:23:06.558Z,99817.22
2023-01-04T20:25:11.112Z,99830.16
2023-01-04T20:27:14.283Z,99833.84
2023-01-04T20:29:17.321Z,99818.53
2023-01-04T20:31:20.702Z,99819.13
2023-01-04T20:33:23.561Z,99813.13
2023-01-04T20:35:26.428Z,99808.00
2023-01-04T20:37:45.583Z,99799.69
2023-01-04T20:39:49.182Z,99789.66
2023-01-04T20:42:09.848Z,99799.00
2023-01-04T20:44:12.829Z,99809.25
2023-01-04T20:46:18.463Z,99793.06
2023-01-04T20:48:21.110Z,99793.06
2023-01-04T20:50:23.736Z,99792.16
2023-01-04T20:52:28.155Z,99790.59
2023-01-04T20:54:30.418Z,99795.75
2023-01-04T20:56:38.220Z,99782.13
2023-01-04T20:58:40.748Z,99783.09
2023-01-04T21:00:44.249Z,99782.91
2023-01-04T21:02:46.877Z,99780.50
2023-01-04T21:04:50.345Z,99781.28
2023-01-04T21:06:53.405Z,99778.78
2023-01-04T21:08:56.732Z,99774.53
2023-01-04T21:10:59.866Z,99771.38
2023-01-04T21:13:02.457Z,99766.13
2023-01-04T21:15:05.122Z,99760.94
2023-01-04T21:17:11.350Z,99752.66
2023-01-04T21:19:14.627Z,99758.63
2023-01-04T21:21:18.830Z,99762.91
2023-01-04T21:23:28.806Z,99742.31
2023-01-04T21:25:39.280Z,99736.75
2023-01-04T21:27:44.071Z,99740.97
2023-01-04T21:30:05.718Z,99732.50
2023-01-04T21:32:13.394Z,99722.41
2023-01-04T21:34:36.135Z,99717.19
2023-01-04T21:36:44.380Z,99713.94
2023-01-04T21:38:50.798Z,99698.78
2023-01-04T21:40:59.091Z,99696.41
2023-01-04T21:43:28.519Z,99686.97
2023-01-04T21:45:32.909Z,99683.66
2023-01-04T21:47:36.197Z,99688.75
2023-01-04T21:49:44.385Z,99687.09
2023-01-04T21:51:48.305Z,99695.78
2023-01-04T21:54:01.053Z,99683.88
2023-01-04T21:56:16.521Z,99681.19
2023-01-04T21:58:29.462Z,99685.41
2023-01-04T22:00:49.106Z,99685.22
2023-01-04T22:02:57.329Z,99690.13
2023-01-04T22:05:02.383Z,99683.22
2023-01-04T22:07:04.276Z,99689.00
2023-01-04T22:09:26.403Z,99674.53
2023-01-04T22:11:28.349Z,99668.47
2023-01-04T22:13:30.695Z,99670.25
2023-01-04T22:15:39.313Z,99659.16
2023-01-04T22:17:42.501Z,99655.81
2023-01-04T22:19:59.337Z,99661.66
2023-01-04T22:22:04.119Z,99653.94
2023-01-04T22:24:18.301Z,99647.25
2023-01-04T22:26:22.787Z,99637.94
2023-01-04T22:28:37.018Z,99634.69
2023-01-04T22:30:44.620Z,99642.25
2023-01-04T22:32:54.385Z,99629.59
2023-01-04T22:34:58.388Z,99630.38
2023-01-04T22:37:00.244Z,99633.81
2023-01-04T22:39:02.275Z,99621.91
2023-01-04T22:41:10.159Z,99623.69
2023-01-04T22:43:12.098Z,99609.16
2023-01-04T22:45:23.385Z,99610.00
2023-01-04T22:47:26.300Z,99596.50
2023-01-04T22:49:29.284Z,99600.00
2023-01-04T22:51:32.310Z,99595.75
2023-01-04T22:53:35.685Z,99580.63
2023-01-04T22:56:17.135Z,99602.81
2023-01-04T22:58:08.511Z,99592.59
2023-01-04T23:00:12.060Z,99575.72
2023-01-04T23:02:22.792Z,99565.59
2023-01-04T23:04:24.754Z,99564.72
2023-01-04T23:06:29.111Z,99551.25
2023-01-04T23:08:32.882Z,99551.25
2023-01-04T23:10:37.719Z,99556.41
2023-01-04T23:12:39.657Z,99543.59
2023-01-04T23:14:42.800Z,99545.44
2023-01-04T23:16:45.546Z,99544.53
2023-01-04T23:18:49.491Z,99537.94
2023-01-04T23:21:01.117Z,99536.19
2023-01-04T23:23:02.874Z,99520.78
2023-01-04T23:25:06.007Z,99530.19
2023-01-04T23:27:08.915Z,99525.06
2023-01-04T23:29:16.667Z,99529.25
2023-01-04T23:31:26.017Z,99523.41
2023-01-04T23:33:35.661Z,99517.56
2023-01-04T23:35:39.560Z,99514.94
2023-01-04T23:37:41.392Z,99509.03
2023-01-04T23:39:45.360Z,99520.06
2023-01-04T23:41:48.368Z,99512.34
2023-01-04T23:43:51.257Z,99502.16
2023-01-04T23:45:54.250Z,99499.66
2023-01-04T23:47:56.149Z,99505.66
2023-01-04T23:49:59.007Z,99488.66
2023-01-04T23:52:04.472Z,99502.22
2023-01-04T23:54:09.200Z,99482.59
2023-01-04T23:56:16.042Z,99484.34
2023-01-04T23:58:18.056Z,99480.94
